Time;durP1;ratioP1;P1;durP2;ratioP2;P2;SDS_P1;SDS_P2;PMS_P1;PMS_P2;Temp;Humidity;BMP_temperature;BMP_pressure;BME280_temperature;BME280_humidity;BME280_pressure;Samples;Min_cycle;Max_cycle;Signal;HPM_P1;HPM_P2
2024/01/01 00:00:13;;;;;;;7.05;3.55;;;;;;;;;;5136062;27;20047;-58
2024/01/01 00:02:40;;;;;;;7.20;3.47;;;;;;;;;;5135779;27;20054;-58
2024/01/01 00:05:09;;;;;;;8.90;3.47;;;;;;;;;;5136502;27;20062;-58
2024/01/01 00:07:35;;;;;;;7.35;3.92;;;;;;;;;;5136357;27;20047;-59
2024/01/01 00:10:02;;;;;;;7.68;4.00;;;;;;;;;;5135891;27;20058;-58
2024/01/01 00:12:29;;;;;;;8.45;4.10;;;;;;;;;;5136210;27;20057;-58
2024/01/01 00:14:56;;;;;;;7.50;3.90;;;;;;;;;;5136211;27;20055;-58
2024/01/01 00:17:23;;;;;;;6.20;3.85;;;;;;;;;;5136063;27;20055;-58
2024/01/01 00:19:51;;;;;;;6.88;3.83;;;;;;;;;;5136025;27;20062;-58
2024/01/01 00:22:19;;;;;;;9.32;4.55;;;;;;;;;;5136187;27;20062;-58
2024/01/01 00:24:46;;;;;;;9.00;4.47;;;;;;;;;;5136104;27;20051;-58
2024/01/01 00:27:13;;;;;;;9.15;4.55;;;;;;;;;;5136201;27;20480;-58
2024/01/01 00:29:39;;;;;;;7.70;5.03;;;;;;;;;;5135778;27;20487;-57
2024/01/01 00:32:07;;;;;;;16.55;6.22;;;;;;;;;;5135676;27;20043;-58
2024/01/01 00:34:33;;;;;;;14.80;6.22;;;;;;;;;;5135372;27;20051;-58
2024/01/01 00:37:00;;;;;;;12.02;5.57;;;;;;;;;;5135054;27;20135;-58
2024/01/01 00:39:29;;;;;;;12.27;6.07;;;;;;;;;;5135664;27;20051;-58
2024/01/01 00:41:55;;;;;;;10.57;5.50;;;;;;;;;;5135328;27;20044;-57
2024/01/01 00:44:22;;;;;;;9.30;5.95;;;;;;;;;;5135106;27;20058;-57
2024/01/01 00:46:49;;;;;;;10.55;6.15;;;;;;;;;;5135316;27;20063;-57
2024/01/01 00:49:16;;;;;;;12.73;6.38;;;;;;;;;;5134948;27;20047;-57
2024/01/01 00:51:43;;;;;;;8.68;6.18;;;;;;;;;;5135732;27;20070;-58
2024/01/01 00:54:11;;;;;;;10.48;6.82;;;;;;;;;;5135087;27;20419;-57
2024/01/01 00:56:39;;;;;;;12.30;7.22;;;;;;;;;;5135393;27;20050;-57
2024/01/01 00:59:06;;;;;;;12.95;7.75;;;;;;;;;;5135223;27;20395;-57
2024/01/01 01:01:32;;;;;;;13.98;8.38;;;;;;;;;;5135218;27;20047;-57
2024/01/01 01:03:59;;;;;;;12.40;8.23;;;;;;;;;;5135007;27;20051;-57
2024/01/01 01:06:26;;;;;;;14.75;8.98;;;;;;;;;;5135015;27;20062;-58
2024/01/01 01:08:53;;;;;;;18.75;9.70;;;;;;;;;;5134630;27;20051;-57
2024/01/01 01:11:20;;;;;;;13.52;9.65;;;;;;;;;;5135236;27;20054;-57
2024/01/01 01:13:49;;;;;;;15.18;10.32;;;;;;;;;;5135268;27;20054;-57
2024/01/01 01:16:17;;;;;;;17.38;10.95;;;;;;;;;;5134806;27;20062;-57
2024/01/01 01:18:44;;;;;;;15.30;9.82;;;;;;;;;;5134846;27;20055;-57
2024/01/01 01:21:13;;;;;;;18.02;10.82;;;;;;;;;;5134187;27;20472;-56
2024/01/01 01:23:39;;;;;;;18.52;10.80;;;;;;;;;;5134741;27;20055;-58
2024/01/01 01:26:06;;;;;;;17.00;11.18;;;;;;;;;;5134560;27;20383;-57
2024/01/01 01:28:33;;;;;;;17.20;10.75;;;;;;;;;;5134435;27;20051;-57
2024/01/01 01:31:02;;;;;;;17.52;10.20;;;;;;;;;;5134454;27;20047;-57
2024/01/01 01:33:29;;;;;;;15.93;10.38;;;;;;;;;;5134176;27;20055;-57
2024/01/01 01:35:56;;;;;;;16.73;9.60;;;;;;;;;;5131255;27;20067;-57
2024/01/01 01:38:23;;;;;;;15.35;9.73;;;;;;;;;;5114094;28;20409;-57
2024/01/01 01:40:50;;;;;;;15.50;9.35;;;;;;;;;;5113403;28;20048;-56
2024/01/01 01:43:21;;;;;;;13.77;8.25;;;;;;;;;;5113627;28;20420;-57
2024/01/01 01:45:48;;;;;;;14.93;8.60;;;;;;;;;;5113689;28;20051;-57
2024/01/01 01:48:17;;;;;;;11.88;8.20;;;;;;;;;;5113984;28;20063;-57
2024/01/01 01:50:44;;;;;;;12.15;8.63;;;;;;;;;;5130062;27;20051;-57
2024/01/01 01:53:12;;;;;;;10.68;7.32;;;;;;;;;;5134253;27;20058;-57
2024/01/01 01:55:39;;;;;;;16.58;8.50;;;;;;;;;;5133908;27;20051;-56
2024/01/01 01:58:05;;;;;;;11.38;7.07;;;;;;;;;;5133991;27;20047;-57
2024/01/01 02:00:32;;;;;;;13.65;7.13;;;;;;;;;;5133730;27;20047;-57
2024/01/01 02:03:00;;;;;;;13.07;6.93;;;;;;;;;;5134115;27;20059;-57
2024/01/01 02:05:28;;;;;;;14.82;6.68;;;;;;;;;;5133710;27;20051;-57
2024/01/01 02:07:55;;;;;;;13.38;6.28;;;;;;;;;;5133778;27;20051;-57
2024/01/01 02:10:22;;;;;;;12.63;5.68;;;;;;;;;;5133740;27;20047;-57
2024/01/01 02:12:49;;;;;;;10.55;5.47;;;;;;;;;;5134318;27;20047;-57
2024/01/01 02:15:15;;;;;;;11.90;5.28;;;;;;;;;;5133669;27;20050;-57
2024/01/01 02:17:42;;;;;;;11.25;5.32;;;;;;;;;;5133901;27;20054;-57
2024/01/01 02:20:09;;;;;;;12.13;5.32;;;;;;;;;;5133461;27;20058;-57
2024/01/01 02:22:38;;;;;;;13.32;5.50;;;;;;;;;;5134060;27;20047;-57
2024/01/01 02:25:08;;;;;;;8.63;4.38;;;;;;;;;;5133475;27;20055;-57
2024/01/01 02:27:34;;;;;;;;;;;;;;;;;;5134323;27;20494;-56
2024/01/01 02:30:01;;;;;;;10.38;4.45;;;;;;;;;;5134173;27;19926;-57
2024/01/01 02:32:28;;;;;;;9.60;4.18;;;;;;;;;;5133054;27;20050;-57
2024/01/01 02:34:55;;;;;;;11.63;3.65;;;;;;;;;;5133774;27;20051;-57
2024/01/01 02:37:21;;;;;;;7.38;3.55;;;;;;;;;;5133088;27;20062;-57
2024/01/01 02:39:48;;;;;;;8.48;3.78;;;;;;;;;;5133765;28;20047;-56
2024/01/01 02:42:16;;;;;;;9.07;3.10;;;;;;;;;;5133664;27;20054;-57
2024/01/01 02:44:43;;;;;;;11.13;4.00;;;;;;;;;;5133518;28;20054;-56
2024/01/01 02:47:10;;;;;;;8.38;3.42;;;;;;;;;;5133788;27;20057;-57
2024/01/01 02:49:37;;;;;;;9.68;3.20;;;;;;;;;;5133024;28;20054;-58
2024/01/01 02:52:04;;;;;;;7.80;2.97;;;;;;;;;;5133747;27;20050;-57
2024/01/01 02:54:31;;;;;;;8.10;3.03;;;;;;;;;;5133397;27;20070;-58
2024/01/01 02:56:57;;;;;;;7.97;2.97;;;;;;;;;;5133551;28;20059;-56
2024/01/01 02:59:26;;;;;;;5.32;2.53;;;;;;;;;;5133570;28;20476;-56
2024/01/01 03:01:52;;;;;;;11.45;3.25;;;;;;;;;;5133158;27;20043;-57
2024/01/01 03:04:19;;;;;;;12.52;3.95;;;;;;;;;;5133257;28;20478;-56
2024/01/01 03:06:46;;;;;;;15.75;4.25;;;;;;;;;;5133126;28;20051;-57
2024/01/01 03:09:13;;;;;;;10.20;3.08;;;;;;;;;;5133218;28;20051;-57
2024/01/01 03:11:40;;;;;;;13.57;3.33;;;;;;;;;;5132921;28;20457;-56
2024/01/01 03:14:06;;;;;;;15.73;3.67;;;;;;;;;;5133184;28;20055;-57
2024/01/01 03:16:34;;;;;;;9.05;2.67;;;;;;;;;;5133267;28;20062;-56
2024/01/01 03:19:01;;;;;;;6.80;2.28;;;;;;;;;;5132768;27;20070;-57
2024/01/01 03:21:28;;;;;;;9.40;2.95;;;;;;;;;;5132922;27;20055;-58
2024/01/01 03:23:55;;;;;;;13.68;3.08;;;;;;;;;;5133330;27;20047;-57
2024/01/01 03:26:22;;;;;;;9.48;2.72;;;;;;;;;;5133300;27;20369;-57
2024/01/01 03:28:49;;;;;;;7.05;2.83;;;;;;;;;;5133309;27;20055;-57
2024/01/01 03:31:16;;;;;;;11.75;2.97;;;;;;;;;;5133305;27;20054;-56
2024/01/01 03:33:45;;;;;;;8.48;3.53;;;;;;;;;;5132873;28;20507;-57
2024/01/01 03:36:12;;;;;;;8.15;2.63;;;;;;;;;;5132742;27;20059;-57
2024/01/01 03:38:39;;;;;;;7.10;2.10;;;;;;;;;;5133104;28;20062;-56
2024/01/01 03:41:06;;;;;;;9.82;2.72;;;;;;;;;;5132969;28;20400;-56
2024/01/01 03:43:33;;;;;;;9.55;2.85;;;;;;;;;;5132934;27;20078;-56
2024/01/01 03:46:00;;;;;;;9.70;2.40;;;;;;;;;;5136395;27;20047;-56
2024/01/01 03:48:26;;;;;;;8.02;2.03;;;;;;;;;;5136862;27;20184;-56
2024/01/01 03:50:55;;;;;;;6.40;1.77;;;;;;;;;;5135992;27;20051;-56
2024/01/01 03:53:22;;;;;;;8.18;2.30;;;;;;;;;;5136946;27;20055;-56
2024/01/01 03:55:48;;;;;;;7.13;2.38;;;;;;;;;;5136533;27;20062;-56
2024/01/01 03:58:15;;;;;;;10.85;2.35;;;;;;;;;;5136368;27;20058;-56
2024/01/01 04:00:42;;;;;;;10.45;2.50;;;;;;;;;;5135876;27;20407;-57
2024/01/01 04:03:09;;;;;;;9.63;2.67;;;;;;;;;;5135954;27;20055;-55
2024/01/01 04:05:36;;;;;;;9.82;2.88;;;;;;;;;;5135738;27;20051;-55
2024/01/01 04:08:04;;;;;;;9.90;2.60;;;;;;;;;;5135921;27;20051;-56
2024/01/01 04:10:31;;;;;;;13.13;3.03;;;;;;;;;;5136367;27;20419;-55
2024/01/01 04:12:58;;;;;;;12.25;2.97;;;;;;;;;;5136420;27;20109;-56
2024/01/01 04:15:25;;;;;;;9.52;2.83;;;;;;;;;;5136282;27;20062;-56
2024/01/01 04:17:52;;;;;;;10.73;2.63;;;;;;;;;;5136175;27;20055;-55
2024/01/01 04:20:18;;;;;;;12.93;3.05;;;;;;;;;;5136370;27;20062;-56
2024/01/01 04:22:48;;;;;;;11.20;2.80;;;;;;;;;;5135954;27;20062;-55
2024/01/01 04:25:16;;;;;;;10.73;3.30;;;;;;;;;;5135699;27;20506;-56
2024/01/01 04:27:43;;;;;;;12.18;3.08;;;;;;;;;;5136156;27;20105;-56
2024/01/01 04:30:10;;;;;;;13.88;3.55;;;;;;;;;;5135757;27;20055;-54
2024/01/01 04:32:37;;;;;;;10.05;2.90;;;;;;;;;;5135977;27;20058;-57
2024/01/01 04:35:04;;;;;;;13.60;3.10;;;;;;;;;;5135675;27;20136;-56
2024/01/01 04:37:31;;;;;;;9.32;2.88;;;;;;;;;;5135341;27;20062;-57
2024/01/01 04:39:58;;;;;;;10.20;3.25;;;;;;;;;;5135863;27;20128;-57
2024/01/01 04:42:26;;;;;;;16.90;3.95;;;;;;;;;;5135655;27;20051;-57
2024/01/01 04:44:53;;;;;;;13.35;3.28;;;;;;;;;;5135282;27;20054;-57
2024/01/01 04:47:22;;;;;;;12.18;2.70;;;;;;;;;;5135642;27;20064;-57
2024/01/01 04:49:49;;;;;;;15.57;3.55;;;;;;;;;;5135630;27;20039;-57
2024/01/01 04:52:15;;;;;;;14.50;3.50;;;;;;;;;;5135788;27;20070;-58
2024/01/01 04:54:42;;;;;;;17.05;3.40;;;;;;;;;;5135608;27;20055;-58
2024/01/01 04:57:09;;;;;;;18.55;4.03;;;;;;;;;;5135505;27;20391;-57
2024/01/01 04:59:38;;;;;;;13.43;3.30;;;;;;;;;;5135201;27;20055;-58
2024/01/01 05:02:05;;;;;;;15.98;3.00;;;;;;;;;;5135353;27;20051;-58
2024/01/01 05:04:31;;;;;;;13.35;3.47;;;;;;;;;;5135259;27;20055;-58
2024/01/01 05:06:58;;;;;;;13.02;3.53;;;;;;;;;;5135155;27;20051;-58
2024/01/01 05:09:25;;;;;;;16.33;3.50;;;;;;;;;;5134714;27;20058;-58
2024/01/01 05:11:52;;;;;;;14.00;3.35;;;;;;;;;;5134797;27;20051;-58
2024/01/01 05:14:19;;;;;;;14.43;3.35;;;;;;;;;;5134912;27;20408;-58
2024/01/01 05:16:48;;;;;;;11.98;4.00;;;;;;;;;;5134685;27;20055;-58
2024/01/01 05:19:14;;;;;;;12.77;3.15;;;;;;;;;;5135522;27;20396;-58
2024/01/01 05:21:41;;;;;;;15.35;3.20;;;;;;;;;;5134945;27;20471;-58
2024/01/01 05:24:08;;;;;;;15.07;3.42;;;;;;;;;;5134364;27;20076;-58
2024/01/01 05:26:35;;;;;;;12.80;3.33;;;;;;;;;;5134829;27;20051;-57
2024/01/01 05:29:02;;;;;;;11.57;3.17;;;;;;;;;;5134493;27;20054;-58
2024/01/01 05:31:29;;;;;;;12.68;3.63;;;;;;;;;;5134294;27;20431;-58
2024/01/01 05:33:57;;;;;;;13.32;3.00;;;;;;;;;;5135116;27;20073;-57
2024/01/01 05:36:24;;;;;;;13.13;3.78;;;;;;;;;;5134214;27;20077;-57
2024/01/01 05:38:51;;;;;;;10.68;2.65;;;;;;;;;;5134355;27;20051;-58
2024/01/01 05:41:17;;;;;;;14.25;3.65;;;;;;;;;;5134360;27;20058;-57
2024/01/01 05:43:44;;;;;;;12.23;3.40;;;;;;;;;;5134270;27;20388;-57
2024/01/01 05:46:11;;;;;;;12.25;3.85;;;;;;;;;;5134264;27;20051;-57
2024/01/01 05:48:38;;;;;;;15.38;3.03;;;;;;;;;;5134708;27;20400;-58
2024/01/01 05:51:06;;;;;;;9.80;2.85;;;;;;;;;;5133861;27;20058;-58
2024/01/01 05:53:33;;;;;;;11.85;3.03;;;;;;;;;;5134381;27;20149;-58
2024/01/01 05:56:00;;;;;;;13.30;2.90;;;;;;;;;;5133911;27;20137;-58
2024/01/01 05:58:27;;;;;;;12.45;3.47;;;;;;;;;;5134063;27;20051;-57
2024/01/01 06:00:53;;;;;;;13.70;3.28;;;;;;;;;;5133814;27;20396;-58
2024/01/01 06:03:20;;;;;;;15.40;3.28;;;;;;;;;;5134080;27;20051;-58
2024/01/01 06:05:47;;;;;;;12.88;3.72;;;;;;;;;;5133625;27;20062;-58
2024/01/01 06:08:16;;;;;;;9.13;2.88;;;;;;;;;;5132929;27;20492;-59
2024/01/01 06:10:42;;;;;;;15.10;3.85;;;;;;;;;;5133788;27;20074;-58
2024/01/01 06:13:09;;;;;;;9.65;2.97;;;;;;;;;;5133748;27;20047;-58
2024/01/01 06:15:36;;;;;;;9.85;2.85;;;;;;;;;;5133880;27;20051;-58
2024/01/01 06:18:03;;;;;;;12.10;3.25;;;;;;;;;;5133408;27;20055;-58
2024/01/01 06:20:30;;;;;;;11.30;3.00;;;;;;;;;;5133743;27;20066;-58
2024/01/01 06:22:56;;;;;;;14.25;3.50;;;;;;;;;;5133660;27;20050;-58
2024/01/01 06:25:25;;;;;;;12.77;3.15;;;;;;;;;;5134338;27;20069;-57
2024/01/01 06:27:51;;;;;;;12.88;3.00;;;;;;;;;;5133844;27;20047;-57
2024/01/01 06:30:18;;;;;;;15.32;3.08;;;;;;;;;;5133588;27;20408;-58
2024/01/01 06:32:45;;;;;;;10.40;2.88;;;;;;;;;;5133915;27;20047;-58
2024/01/01 06:35:12;;;;;;;11.68;2.83;;;;;;;;;;5133630;27;20480;-58
2024/01/01 06:37:39;;;;;;;13.73;2.50;;;;;;;;;;5132775;27;20051;-58
2024/01/01 06:40:06;;;;;;;14.00;3.22;;;;;;;;;;5133348;28;20060;-58
2024/01/01 06:42:35;;;;;;;11.77;2.40;;;;;;;;;;5134058;28;20055;-58
2024/01/01 06:45:01;;;;;;;11.45;3.15;;;;;;;;;;5133250;27;20381;-58
2024/01/01 06:47:29;;;;;;;12.27;2.92;;;;;;;;;;5133063;28;20047;-58
2024/01/01 06:49:55;;;;;;;13.52;3.10;;;;;;;;;;5133112;27;20051;-58
2024/01/01 06:52:22;;;;;;;16.88;3.10;;;;;;;;;;5133565;28;20503;-58
2024/01/01 06:54:49;;;;;;;14.63;3.03;;;;;;;;;;5133054;28;20055;-58
2024/01/01 06:57:16;;;;;;;13.98;2.47;;;;;;;;;;5133578;27;20055;-59
2024/01/01 06:59:44;;;;;;;12.05;3.47;;;;;;;;;;5133526;27;20486;-58
2024/01/01 07:02:11;;;;;;;13.48;2.90;;;;;;;;;;5132980;28;20411;-58
2024/01/01 07:04:38;;;;;;;13.68;2.97;;;;;;;;;;5132899;28;20051;-58
2024/01/01 07:07:04;;;;;;;10.82;2.65;;;;;;;;;;5132996;28;20055;-58
2024/01/01 07:09:31;;;;;;;12.88;3.15;;;;;;;;;;5133176;28;20062;-58
2024/01/01 07:11:58;;;;;;;9.10;2.50;;;;;;;;;;5133274;27;20058;-59
2024/01/01 07:14:25;;;;;;;10.27;3.00;;;;;;;;;;5132938;28;20051;-59
2024/01/01 07:16:54;;;;;;;16.02;3.63;;;;;;;;;;5133366;27;20070;-58
2024/01/01 07:19:21;;;;;;;10.27;2.93;;;;;;;;;;5134848;27;20055;-59
2024/01/01 07:21:48;;;;;;;11.52;2.85;;;;;;;;;;5137514;27;20055;-59
2024/01/01 07:24:14;;;;;;;9.07;2.88;;;;;;;;;;5136994;27;20055;-58
2024/01/01 07:26:41;;;;;;;13.73;3.13;;;;;;;;;;5137184;27;20050;-58
2024/01/01 07:29:08;;;;;;;15.05;3.40;;;;;;;;;;5136653;27;20062;-58
2024/01/01 07:31:35;;;;;;;12.73;3.08;;;;;;;;;;5136798;27;20051;-58
2024/01/01 07:34:04;;;;;;;9.52;2.60;;;;;;;;;;5136897;27;20488;-58
2024/01/01 07:36:30;;;;;;;11.85;3.33;;;;;;;;;;5136482;27;20047;-58
2024/01/01 07:38:57;;;;;;;13.93;3.15;;;;;;;;;;5136451;27;20051;-58
2024/01/01 07:41:24;;;;;;;8.95;2.72;;;;;;;;;;5136710;27;20062;-58
2024/01/01 07:43:51;;;;;;;10.35;2.70;;;;;;;;;;5136299;27;20047;-57
2024/01/01 07:46:18;;;;;;;12.70;2.97;;;;;;;;;;5136793;27;20058;-58
2024/01/01 07:48:45;;;;;;;11.07;2.33;;;;;;;;;;5136441;27;20405;-57
2024/01/01 07:51:13;;;;;;;11.30;2.67;;;;;;;;;;5136488;27;20480;-58
2024/01/01 07:53:41;;;;;;;12.73;3.15;;;;;;;;;;5136674;27;20058;-58
2024/01/01 07:56:09;;;;;;;11.73;2.85;;;;;;;;;;5136678;27;20051;-58
2024/01/01 07:58:35;;;;;;;11.55;3.15;;;;;;;;;;5136423;27;20372;-58
2024/01/01 08:01:02;;;;;;;12.25;2.90;;;;;;;;;;5135578;27;20058;-58
2024/01/01 08:03:29;;;;;;;10.82;2.45;;;;;;;;;;5136087;27;20051;-58
2024/01/01 08:05:56;;;;;;;11.95;3.58;;;;;;;;;;5136031;27;20051;-58
2024/01/01 08:08:24;;;;;;;12.10;2.78;;;;;;;;;;5136135;27;20051;-58
2024/01/01 08:10:53;;;;;;;13.75;3.45;;;;;;;;;;5135796;27;20068;-58
2024/01/01 08:13:19;;;;;;;10.90;3.35;;;;;;;;;;5136549;27;20412;-58
2024/01/01 08:15:46;;;;;;;11.10;3.08;;;;;;;;;;5136060;27;20480;-58
2024/01/01 08:18:13;;;;;;;12.95;3.28;;;;;;;;;;5135826;27;20118;-57
2024/01/01 08:20:40;;;;;;;13.85;2.80;;;;;;;;;;5135641;27;20487;-57
2024/01/01 08:23:06;;;;;;;10.80;3.15;;;;;;;;;;5135624;27;20408;-58
2024/01/01 08:25:34;;;;;;;10.15;3.10;;;;;;;;;;5135776;27;20388;-58
2024/01/01 08:28:01;;;;;;;11.77;3.13;;;;;;;;;;5135432;27;20054;-57
2024/01/01 08:30:28;;;;;;;9.55;3.13;;;;;;;;;;5135829;27;20055;-57
2024/01/01 08:32:55;;;;;;;11.73;3.42;;;;;;;;;;5135322;27;20059;-57
2024/01/01 08:35:22;;;;;;;9.57;2.80;;;;;;;;;;5135906;27;20051;-57
2024/01/01 08:37:49;;;;;;;9.65;2.40;;;;;;;;;;5134811;27;20496;-56
2024/01/01 08:40:16;;;;;;;9.45;2.92;;;;;;;;;;5135877;27;20055;-57
2024/01/01 08:42:44;;;;;;;12.75;3.15;;;;;;;;;;5136044;27;20400;-58
2024/01/01 08:45:11;;;;;;;8.80;3.05;;;;;;;;;;5134555;27;20078;-57
2024/01/01 08:47:40;;;;;;;9.88;2.30;;;;;;;;;;5135654;27;20051;-58
2024/01/01 08:50:07;;;;;;;10.43;2.60;;;;;;;;;;5134885;27;20058;-57
2024/01/01 08:52:34;;;;;;;9.88;2.53;;;;;;;;;;5135131;27;20055;-58
2024/01/01 08:55:01;;;;;;;6.78;2.47;;;;;;;;;;5135054;27;20047;-58
2024/01/01 08:57:28;;;;;;;11.35;2.60;;;;;;;;;;5134726;27;20078;-58
2024/01/01 08:59:56;;;;;;;7.68;2.33;;;;;;;;;;5134279;27;20051;-58
2024/01/01 09:02:23;;;;;;;8.50;2.08;;;;;;;;;;5134952;27;20050;-58
2024/01/01 09:04:49;;;;;;;8.50;2.40;;;;;;;;;;5134799;27;20058;-58
2024/01/01 09:07:16;;;;;;;7.07;1.73;;;;;;;;;;5134866;27;20062;-59
2024/01/01 09:09:43;;;;;;;5.68;1.92;;;;;;;;;;5134897;27;20055;-59
2024/01/01 09:12:10;;;;;;;6.20;2.30;;;;;;;;;;5135307;27;20468;-58
2024/01/01 09:14:38;;;;;;;4.88;1.88;;;;;;;;;;5134684;27;20050;-59
2024/01/01 09:17:07;;;;;;;6.88;2.15;;;;;;;;;;5135105;27;20058;-58
2024/01/01 09:19:34;;;;;;;6.70;2.28;;;;;;;;;;5135415;27;20066;-58
2024/01/01 09:22:01;;;;;;;5.03;1.90;;;;;;;;;;5134939;27;20051;-58
2024/01/01 09:24:27;;;;;;;7.45;1.85;;;;;;;;;;5134842;27;20067;-64
2024/01/01 09:26:54;;;;;;;5.07;1.75;;;;;;;;;;5134924;27;20058;-64
2024/01/01 09:29:23;;;;;;;7.43;2.33;;;;;;;;;;5134843;27;20047;-64
2024/01/01 09:31:49;;;;;;;7.35;2.10;;;;;;;;;;5134679;27;20062;-65
2024/01/01 09:34:18;;;;;;;7.68;2.40;;;;;;;;;;5134993;27;20057;-65
2024/01/01 09:36:44;;;;;;;6.45;2.13;;;;;;;;;;5134704;27;20062;-66
2024/01/01 09:39:11;;;;;;;4.70;1.90;;;;;;;;;;5134112;27;20058;-65
2024/01/01 09:41:38;;;;;;;5.32;1.60;;;;;;;;;;5134025;27;20051;-66
2024/01/01 09:44:05;;;;;;;8.15;2.33;;;;;;;;;;5134329;27;20058;-64
2024/01/01 09:46:33;;;;;;;5.93;1.92;;;;;;;;;;5134079;27;20492;-64
2024/01/01 09:49:00;;;;;;;8.23;2.03;;;;;;;;;;5134153;27;20408;-64
2024/01/01 09:51:28;;;;;;;5.78;1.90;;;;;;;;;;5134145;27;20043;-65
2024/01/01 09:53:55;;;;;;;4.45;2.00;;;;;;;;;;5134200;27;20051;-65
2024/01/01 09:56:22;;;;;;;4.03;1.80;;;;;;;;;;5134159;27;20123;-64
2024/01/01 09:58:49;;;;;;;4.93;2.00;;;;;;;;;;5133799;27;20054;-65
2024/01/01 10:01:18;;;;;;;10.68;2.72;;;;;;;;;;5134366;27;20067;-65
2024/01/01 10:04:00;;;;;;;7.18;2.00;;;;;;;;;;5134058;27;20051;-66
2024/01/01 10:06:27;;;;;;;5.10;2.20;;;;;;;;;;5133718;27;20043;-65
2024/01/01 10:09:05;;;;;;;7.68;2.40;;;;;;;;;;5133994;27;20047;-65
2024/01/01 10:11:31;;;;;;;6.97;2.30;;;;;;;;;;5133773;27;20058;-65
2024/01/01 10:14:03;;;;;;;4.18;1.80;;;;;;;;;;5133770;27;20055;-65
2024/01/01 10:16:30;;;;;;;7.10;2.60;;;;;;;;;;5133613;27;20051;-65
2024/01/01 10:18:58;;;;;;;6.53;1.67;;;;;;;;;;5133893;27;20065;-65
2024/01/01 10:21:29;;;;;;;4.82;1.77;;;;;;;;;;5133777;27;20058;-66
2024/01/01 10:23:57;;;;;;;6.15;1.75;;;;;;;;;;5133929;27;20324;-65
2024/01/01 10:26:24;;;;;;;4.63;1.85;;;;;;;;;;5133179;27;20058;-65
2024/01/01 10:28:51;;;;;;;4.57;1.98;;;;;;;;;;5133391;27;20055;-65
2024/01/01 10:31:18;;;;;;;4.88;1.92;;;;;;;;;;5133567;27;20051;-65
2024/01/01 10:33:48;;;;;;;7.05;2.00;;;;;;;;;;5133266;27;20063;-65
2024/01/01 10:36:16;;;;;;;7.63;1.73;;;;;;;;;;5133640;27;20510;-65
2024/01/01 10:38:44;;;;;;;5.13;2.22;;;;;;;;;;5133223;27;20051;-65
2024/01/01 10:41:13;;;;;;;7.25;2.00;;;;;;;;;;5133300;28;20058;-66
2024/01/01 10:43:40;;;;;;;6.97;1.90;;;;;;;;;;5133705;28;20058;-65
2024/01/01 10:46:07;;;;;;;4.30;1.50;;;;;;;;;;5133451;27;20058;-65
2024/01/01 10:48:35;;;;;;;5.88;1.80;;;;;;;;;;5133454;28;20541;-65
2024/01/01 10:51:08;;;;;;;6.13;1.58;;;;;;;;;;5133006;28;20062;-65
2024/01/01 10:53:42;;;;;;;4.82;1.83;;;;;;;;;;5135259;27;20523;-65
2024/01/01 10:56:14;;;;;;;5.40;2.30;;;;;;;;;;5137753;27;20050;-65
2024/01/01 10:58:51;;;;;;;6.43;2.03;;;;;;;;;;5137967;27;20476;-65
2024/01/01 11:01:20;;;;;;;6.03;1.85;;;;;;;;;;5137160;27;20472;-65
2024/01/01 11:03:47;;;;;;;6.80;1.90;;;;;;;;;;5137616;27;20080;-65
2024/01/01 11:06:26;;;;;;;4.30;1.70;;;;;;;;;;5137324;27;20043;-65
2024/01/01 11:08:53;;;;;;;6.30;2.15;;;;;;;;;;5137745;27;20047;-65
2024/01/01 11:11:30;;;;;;;9.05;1.90;;;;;;;;;;5137301;27;20055;-65
2024/01/01 11:13:58;;;;;;;5.07;1.75;;;;;;;;;;5137625;27;20055;-65
2024/01/01 11:16:26;;;;;;;5.38;1.60;;;;;;;;;;5136771;27;20051;-65
2024/01/01 11:18:53;;;;;;;6.65;1.50;;;;;;;;;;5137135;27;20051;-65
2024/01/01 11:21:30;;;;;;;5.60;1.73;;;;;;;;;;5137183;27;20441;-65
2024/01/01 11:23:59;;;;;;;6.22;1.80;;;;;;;;;;5136508;27;20461;-65
2024/01/01 11:26:26;;;;;;;6.82;1.77;;;;;;;;;;5137364;27;20047;-65
2024/01/01 11:28:53;;;;;;;6.90;2.33;;;;;;;;;;5136671;27;20054;-65
2024/01/01 11:31:21;;;;;;;5.90;1.50;;;;;;;;;;5137138;27;20051;-66
2024/01/01 11:33:58;;;;;;;6.50;2.42;;;;;;;;;;5136634;27;20492;-65
2024/01/01 11:36:25;;;;;;;9.90;2.28;;;;;;;;;;5136368;27;20074;-66
2024/01/01 11:38:52;;;;;;;5.90;1.80;;;;;;;;;;5136761;27;20050;-66
2024/01/01 11:41:22;;;;;;;7.82;1.90;;;;;;;;;;5136625;27;20349;-66
2024/01/01 11:43:48;;;;;;;;;;;;;;;;;;5136821;27;20057;-65
2024/01/01 11:46:23;;;;;;;7.07;2.05;;;;;;;;;;5136933;27;19920;-66
2024/01/01 11:48:59;;;;;;;6.47;2.08;;;;;;;;;;5136182;27;20055;-65
2024/01/01 11:51:27;;;;;;;6.88;2.15;;;;;;;;;;5136726;27;20077;-65
2024/01/01 11:54:10;;;;;;;6.70;2.42;;;;;;;;;;5136489;27;20051;-65
2024/01/01 11:56:37;;;;;;;6.22;1.95;;;;;;;;;;5136762;27;20047;-66
2024/01/01 11:59:06;;;;;;;8.30;2.67;;;;;;;;;;5136606;27;20047;-66
2024/01/01 12:01:34;;;;;;;5.82;2.28;;;;;;;;;;5136560;27;20047;-65
2024/01/01 12:04:02;;;;;;;3.53;1.65;;;;;;;;;;5136145;27;20047;-65
2024/01/01 12:06:29;;;;;;;6.15;2.03;;;;;;;;;;5135434;27;20422;-65
2024/01/01 12:09:04;;;;;;;6.53;2.10;;;;;;;;;;5136257;27;20051;-65
2024/01/01 12:11:30;;;;;;;8.35;2.10;;;;;;;;;;5136142;27;20047;-65
2024/01/01 12:13:57;;;;;;;7.18;2.38;;;;;;;;;;5136012;27;20051;-66
2024/01/01 12:16:24;;;;;;;7.82;2.22;;;;;;;;;;5135711;27;20054;-65
2024/01/01 12:18:59;;;;;;;6.55;2.20;;;;;;;;;;5135677;27;20043;-65
2024/01/01 12:21:26;;;;;;;6.60;2.15;;;;;;;;;;5135835;27;20062;-65
2024/01/01 12:24:03;;;;;;;5.53;1.80;;;;;;;;;;5135628;27;20051;-66
2024/01/01 12:26:31;;;;;;;6.53;2.05;;;;;;;;;;5135653;27;20047;-65
2024/01/01 12:29:14;;;;;;;6.63;2.22;;;;;;;;;;5135659;27;20058;-65
2024/01/01 12:31:41;;;;;;;5.97;2.35;;;;;;;;;;5135670;27;20058;-66
2024/01/01 12:34:13;;;;;;;8.73;2.53;;;;;;;;;;5135966;27;20063;-66
2024/01/01 12:36:41;;;;;;;6.05;1.70;;;;;;;;;;5135228;27;20158;-65
2024/01/01 12:39:07;;;;;;;8.30;2.38;;;;;;;;;;5135890;27;20058;-65
2024/01/01 12:41:34;;;;;;;7.25;2.20;;;;;;;;;;5135734;27;20050;-65
2024/01/01 12:44:01;;;;;;;8.82;2.50;;;;;;;;;;5135355;27;20055;-65
2024/01/01 12:46:28;;;;;;;9.52;2.42;;;;;;;;;;5135083;27;20051;-65
2024/01/01 12:48:55;;;;;;;7.07;2.28;;;;;;;;;;5135469;27;20057;-65
2024/01/01 12:51:24;;;;;;;8.80;2.42;;;;;;;;;;5135578;27;20397;-65
2024/01/01 12:53:52;;;;;;;6.32;1.80;;;;;;;;;;5135330;27;20047;-65
2024/01/01 12:56:19;;;;;;;9.75;1.95;;;;;;;;;;5135197;27;20065;-65
2024/01/01 12:58:46;;;;;;;6.70;2.10;;;;;;;;;;5134938;27;20058;-65
2024/01/01 13:01:13;;;;;;;12.50;2.80;;;;;;;;;;5134970;27;20058;-65
2024/01/01 13:03:40;;;;;;;8.00;2.60;;;;;;;;;;5134727;27;20051;-66
2024/01/01 13:06:07;;;;;;;7.13;2.03;;;;;;;;;;5135084;27;20392;-66
2024/01/01 13:08:36;;;;;;;7.35;2.55;;;;;;;;;;5134926;27;20503;-66
2024/01/01 13:11:04;;;;;;;6.78;2.13;;;;;;;;;;5134937;27;20055;-65
2024/01/01 13:13:32;;;;;;;9.70;2.25;;;;;;;;;;5134781;27;20059;-66
2024/01/01 13:15:59;;;;;;;8.20;2.78;;;;;;;;;;5134623;27;20376;-65
2024/01/01 13:18:25;;;;;;;8.43;2.45;;;;;;;;;;5134321;27;20385;-66
2024/01/01 13:20:52;;;;;;;8.00;2.47;;;;;;;;;;5134587;27;20051;-65
2024/01/01 13:23:19;;;;;;;9.48;3.08;;;;;;;;;;5134523;27;20488;-66
2024/01/01 13:25:48;;;;;;;10.07;2.90;;;;;;;;;;5134135;27;20046;-65
2024/01/01 13:28:15;;;;;;;9.35;2.72;;;;;;;;;;5134747;27;20059;-67
2024/01/01 13:30:42;;;;;;;9.05;2.40;;;;;;;;;;5134187;27;20492;-65
2024/01/01 13:33:09;;;;;;;8.25;2.45;;;;;;;;;;5134519;27;20059;-65
2024/01/01 13:35:38;;;;;;;6.75;2.55;;;;;;;;;;5134476;27;20055;-65
2024/01/01 13:38:05;;;;;;;9.23;3.05;;;;;;;;;;5113886;28;20150;-65
2024/01/01 13:40:32;;;;;;;8.38;2.47;;;;;;;;;;5114003;28;20058;-65
2024/01/01 13:43:00;;;;;;;7.20;2.50;;;;;;;;;;5114298;28;20489;-65
2024/01/01 13:45:27;;;;;;;12.80;3.25;;;;;;;;;;5113505;28;20058;-65
2024/01/01 13:47:53;;;;;;;6.90;2.78;;;;;;;;;;5113114;28;20059;-65
2024/01/01 13:50:20;;;;;;;8.57;2.65;;;;;;;;;;5113902;28;20062;-65
2024/01/01 13:52:48;;;;;;;9.88;2.85;;;;;;;;;;5114138;28;20051;-65
2024/01/01 13:55:19;;;;;;;10.00;3.10;;;;;;;;;;5113699;28;20051;-65
2024/01/01 13:57:46;;;;;;;7.70;2.53;;;;;;;;;;5114096;28;20055;-65
2024/01/01 14:00:15;;;;;;;9.40;3.05;;;;;;;;;;5113943;28;20052;-65
2024/01/01 14:02:43;;;;;;;12.10;2.87;;;;;;;;;;5114014;28;20055;-65
2024/01/01 14:05:10;;;;;;;8.80;2.80;;;;;;;;;;5113351;28;20465;-65
2024/01/01 14:07:37;;;;;;;10.02;3.13;;;;;;;;;;5113320;27;20051;-65
2024/01/01 14:10:04;;;;;;;12.75;3.08;;;;;;;;;;5113166;28;20059;-65
2024/01/01 14:12:30;;;;;;;10.52;2.78;;;;;;;;;;5130228;27;20069;-65
2024/01/01 14:14:57;;;;;;;9.80;2.80;;;;;;;;;;5133683;27;20047;-65
2024/01/01 14:17:26;;;;;;;9.95;3.03;;;;;;;;;;5133112;27;20050;-65
2024/01/01 14:19:52;;;;;;;8.80;3.33;;;;;;;;;;5133339;27;20385;-64
2024/01/01 14:22:20;;;;;;;11.95;3.70;;;;;;;;;;5133580;27;20059;-66
2024/01/01 14:24:46;;;;;;;10.52;3.08;;;;;;;;;;5154366;27;20046;-65
2024/01/01 14:27:13;;;;;;;12.05;3.72;;;;;;;;;;5154181;27;20044;-65
2024/01/01 14:29:40;;;;;;;8.95;3.10;;;;;;;;;;5154214;27;20050;-67
2024/01/01 14:32:07;;;;;;;13.52;3.50;;;;;;;;;;5154142;27;20049;-65
2024/01/01 14:34:36;;;;;;;12.50;3.20;;;;;;;;;;5154025;27;20054;-65
2024/01/01 14:37:06;;;;;;;11.73;3.55;;;;;;;;;;5153676;27;20050;-65